Port Acres, Texas
Current Conditions -  °F | °C
As of 11:53 AM on Monday 26 Jan 2015 (Local Time) from KBPT Reporting Station
Clear Clear  
Wind Chill: 63°   Ceiling: Unl
Heat Index: 63°   Visibility: 10mi
Dew Point: 33°   Wind: 9mph
Humidity: 33%   Direction: 310°NW
Pressure: 30.2"   Gusts: NA
Location:  29.7569°N, 94.1898°W
Report Text: KBPT 261753Z 31008KT 10SM CLR 17/01 A3020 RMK AO2 SLP225 T01720006 10178 20083 58009
Loading
Personal Weather Stations






























Interactive Weather Map New forecast layout! Learn more

10-Day Weather Forecast

Advertisements
Track Severe Weather on mobile